sensor_id;sensor_type;location;lat;lon;timestamp;P1;P2;P0
44312;PMS5003;38833;51.142;-0.974;2024-01-15T00:01:57;12;11;
44312;PMS5003;38833;51.142;-0.974;2024-01-15T00:04:30;12;12;
44312;PMS5003;38833;51.142;-0.974;2024-01-15T00:07:04;11;11;
44312;PMS5003;38833;51.142;-0.974;2024-01-15T00:09:39;16;15;
44312;PMS5003;38833;51.142;-0.974;2024-01-15T00:12:12;12;12;
44312;PMS5003;38833;51.142;-0.974;2024-01-15T00:14:45;7;7;
44312;PMS5003;38833;51.142;-0.974;2024-01-15T00:17:19;4;4;
44312;PMS5003;38833;51.142;-0.974;2024-01-15T00:19:52;3;2;
44312;PMS5003;38833;51.142;-0.974;2024-01-15T00:22:26;2;1;
44312;PMS5003;38833;51.142;-0.974;2024-01-15T00:24:59;3;3;
44312;PMS5003;38833;51.142;-0.974;2024-01-15T00:27:32;2;2;
44312;PMS5003;38833;51.142;-0.974;2024-01-15T00:30:06;2;2;
44312;PMS5003;38833;51.142;-0.974;2024-01-15T00:32:40;1;1;
44312;PMS5003;38833;51.142;-0.974;2024-01-15T00:35:13;1;1;
44312;PMS5003;38833;51.142;-0.974;2024-01-15T00:37:47;1;1;
44312;PMS5003;38833;51.142;-0.974;2024-01-15T00:40:20;1;1;
44312;PMS5003;38833;51.142;-0.974;2024-01-15T00:42:54;2;1;
44312;PMS5003;38833;51.142;-0.974;2024-01-15T00:45:27;1;1;
44312;PMS5003;38833;51.142;-0.974;2024-01-15T00:48:01;2;2;
44312;PMS5003;38833;51.142;-0.974;2024-01-15T00:50:34;3;0;
44312;PMS5003;38833;51.142;-0.974;2024-01-15T00:53:07;1;0;
44312;PMS5003;38833;51.142;-0.974;2024-01-15T00:55:41;1;0;
44312;PMS5003;38833;51.142;-0.974;2024-01-15T00:58:14;6;3;
44312;PMS5003;38833;51.142;-0.974;2024-01-15T01:00:47;3;2;
44312;PMS5003;38833;51.142;-0.974;2024-01-15T01:03:21;2;1;
44312;PMS5003;38833;51.142;-0.974;2024-01-15T01:05:54;5;2;
44312;PMS5003;38833;51.142;-0.974;2024-01-15T01:08:28;2;1;
44312;PMS5003;38833;51.142;-0.974;2024-01-15T01:11:01;1;0;
44312;PMS5003;38833;51.142;-0.974;2024-01-15T01:13:35;2;2;
44312;PMS5003;38833;51.142;-0.974;2024-01-15T01:16:08;6;2;
44312;PMS5003;38833;51.142;-0.974;2024-01-15T01:18:42;2;2;
44312;PMS5003;38833;51.142;-0.974;2024-01-15T01:21:15;5;2;
44312;PMS5003;38833;51.142;-0.974;2024-01-15T01:23:48;11;9;
44312;PMS5003;38833;51.142;-0.974;2024-01-15T01:26:22;9;9;
44312;PMS5003;38833;51.142;-0.974;2024-01-15T01:28:55;8;8;
44312;PMS5003;38833;51.142;-0.974;2024-01-15T01:31:28;9;9;
44312;PMS5003;38833;51.142;-0.974;2024-01-15T01:34:02;5;5;
44312;PMS5003;38833;51.142;-0.974;2024-01-15T01:36:35;3;3;
44312;PMS5003;38833;51.142;-0.974;2024-01-15T01:39:08;9;8;
44312;PMS5003;38833;51.142;-0.974;2024-01-15T01:41:42;13;9;
44312;PMS5003;38833;51.142;-0.974;2024-01-15T01:44:15;11;9;
44312;PMS5003;38833;51.142;-0.974;2024-01-15T01:46:49;11;8;
44312;PMS5003;38833;51.142;-0.974;2024-01-15T01:49:22;5;5;
44312;PMS5003;38833;51.142;-0.974;2024-01-15T01:51:57;12;11;
44312;PMS5003;38833;51.142;-0.974;2024-01-15T01:54:32;3;3;
44312;PMS5003;38833;51.142;-0.974;2024-01-15T01:57:07;4;2;
44312;PMS5003;38833;51.142;-0.974;2024-01-15T01:59:41;4;3;
44312;PMS5003;38833;51.142;-0.974;2024-01-15T02:02:15;2;2;
44312;PMS5003;38833;51.142;-0.974;2024-01-15T02:04:49;1;1;
44312;PMS5003;38833;51.142;-0.974;2024-01-15T02:07:22;1;1;
44312;PMS5003;38833;51.142;-0.974;2024-01-15T02:09:56;3;1;
44312;PMS5003;38833;51.142;-0.974;2024-01-15T02:12:29;2;2;
44312;PMS5003;38833;51.142;-0.974;2024-01-15T02:15:03;1;1;
44312;PMS5003;38833;51.142;-0.974;2024-01-15T02:17:56;4;3;
44312;PMS5003;38833;51.142;-0.974;2024-01-15T02:20:30;2;1;
44312;PMS5003;38833;51.142;-0.974;2024-01-15T02:23:08;2;2;
44312;PMS5003;38833;51.142;-0.974;2024-01-15T02:25:42;4;2;
44312;PMS5003;38833;51.142;-0.974;2024-01-15T02:28:17;2;2;
44312;PMS5003;38833;51.142;-0.974;2024-01-15T02:30:51;4;2;
44312;PMS5003;38833;51.142;-0.974;2024-01-15T02:33:24;2;2;
44312;PMS5003;38833;51.142;-0.974;2024-01-15T02:35:57;4;1;
44312;PMS5003;38833;51.142;-0.974;2024-01-15T02:38:31;3;3;
44312;PMS5003;38833;51.142;-0.974;2024-01-15T02:41:04;3;1;
44312;PMS5003;38833;51.142;-0.974;2024-01-15T02:43:38;3;3;
44312;PMS5003;38833;51.142;-0.974;2024-01-15T02:46:11;4;3;
44312;PMS5003;38833;51.142;-0.974;2024-01-15T02:48:44;2;2;
44312;PMS5003;38833;51.142;-0.974;2024-01-15T02:51:18;2;2;
44312;PMS5003;38833;51.142;-0.974;2024-01-15T02:53:51;5;2;
44312;PMS5003;38833;51.142;-0.974;2024-01-15T02:56:25;5;4;
44312;PMS5003;38833;51.142;-0.974;2024-01-15T02:58:58;12;8;
44312;PMS5003;38833;51.142;-0.974;2024-01-15T03:01:31;8;8;
44312;PMS5003;38833;51.142;-0.974;2024-01-15T03:04:04;9;9;
44312;PMS5003;38833;51.142;-0.974;2024-01-15T03:06:38;8;8;
44312;PMS5003;38833;51.142;-0.974;2024-01-15T03:09:11;9;9;
44312;PMS5003;38833;51.142;-0.974;2024-01-15T03:11:45;10;10;
44312;PMS5003;38833;51.142;-0.974;2024-01-15T03:14:18;9;8;
44312;PMS5003;38833;51.142;-0.974;2024-01-15T03:16:51;4;3;
44312;PMS5003;38833;51.142;-0.974;2024-01-15T03:20:46;1;1;
44312;PMS5003;38833;51.142;-0.974;2024-01-15T03:23:20;3;2;
44312;PMS5003;38833;51.142;-0.974;2024-01-15T03:25:53;1;1;
44312;PMS5003;38833;51.142;-0.974;2024-01-15T03:28:26;2;1;
44312;PMS5003;38833;51.142;-0.974;2024-01-15T03:30:59;8;8;
44312;PMS5003;38833;51.142;-0.974;2024-01-15T03:33:33;3;3;
44312;PMS5003;38833;51.142;-0.974;2024-01-15T03:36:06;3;3;
44312;PMS5003;38833;51.142;-0.974;2024-01-15T03:38:41;1;1;
44312;PMS5003;38833;51.142;-0.974;2024-01-15T03:41:14;2;2;
44312;PMS5003;38833;51.142;-0.974;2024-01-15T03:43:48;3;2;
44312;PMS5003;38833;51.142;-0.974;2024-01-15T03:46:22;2;2;
44312;PMS5003;38833;51.142;-0.974;2024-01-15T03:48:55;5;2;
44312;PMS5003;38833;51.142;-0.974;2024-01-15T03:51:28;3;2;
44312;PMS5003;38833;51.142;-0.974;2024-01-15T03:54:02;4;3;
44312;PMS5003;38833;51.142;-0.974;2024-01-15T03:56:35;4;3;
44312;PMS5003;38833;51.142;-0.974;2024-01-15T03:59:09;2;2;
44312;PMS5003;38833;51.142;-0.974;2024-01-15T04:01:47;2;2;
44312;PMS5003;38833;51.142;-0.974;2024-01-15T04:04:21;3;2;
44312;PMS5003;38833;51.142;-0.974;2024-01-15T04:06:55;2;2;
44312;PMS5003;38833;51.142;-0.974;2024-01-15T04:09:28;3;3;
44312;PMS5003;38833;51.142;-0.974;2024-01-15T04:12:01;2;2;
44312;PMS5003;38833;51.142;-0.974;2024-01-15T04:14:35;2;2;
44312;PMS5003;38833;51.142;-0.974;2024-01-15T04:17:08;2;2;
44312;PMS5003;38833;51.142;-0.974;2024-01-15T04:19:43;3;3;
44312;PMS5003;38833;51.142;-0.974;2024-01-15T04:22:16;2;2;
44312;PMS5003;38833;51.142;-0.974;2024-01-15T04:24:50;3;3;
44312;PMS5003;38833;51.142;-0.974;2024-01-15T04:27:23;4;2;
44312;PMS5003;38833;51.142;-0.974;2024-01-15T04:29:56;2;2;
44312;PMS5003;38833;51.142;-0.974;2024-01-15T04:32:30;5;3;
44312;PMS5003;38833;51.142;-0.974;2024-01-15T04:35:03;2;2;
44312;PMS5003;38833;51.142;-0.974;2024-01-15T04:37:37;4;4;
44312;PMS5003;38833;51.142;-0.974;2024-01-15T04:40:10;2;2;
44312;PMS5003;38833;51.142;-0.974;2024-01-15T04:42:44;3;1;
44312;PMS5003;38833;51.142;-0.974;2024-01-15T04:45:17;3;3;
44312;PMS5003;38833;51.142;-0.974;2024-01-15T04:47:51;2;2;
44312;PMS5003;38833;51.142;-0.974;2024-01-15T04:50:24;3;3;
44312;PMS5003;38833;51.142;-0.974;2024-01-15T04:52:57;3;3;
44312;PMS5003;38833;51.142;-0.974;2024-01-15T04:55:31;3;2;
44312;PMS5003;38833;51.142;-0.974;2024-01-15T04:58:04;2;2;
44312;PMS5003;38833;51.142;-0.974;2024-01-15T05:00:37;2;1;
44312;PMS5003;38833;51.142;-0.974;2024-01-15T05:03:11;2;2;
44312;PMS5003;38833;51.142;-0.974;2024-01-15T05:05:44;3;1;
44312;PMS5003;38833;51.142;-0.974;2024-01-15T05:08:18;2;1;
44312;PMS5003;38833;51.142;-0.974;2024-01-15T05:10:51;2;2;
44312;PMS5003;38833;51.142;-0.974;2024-01-15T05:13:24;2;2;
44312;PMS5003;38833;51.142;-0.974;2024-01-15T05:15:58;1;1;
44312;PMS5003;38833;51.142;-0.974;2024-01-15T05:18:31;0;0;
44312;PMS5003;38833;51.142;-0.974;2024-01-15T05:21:05;4;3;
44312;PMS5003;38833;51.142;-0.974;2024-01-15T05:23:38;1;1;
44312;PMS5003;38833;51.142;-0.974;2024-01-15T05:26:11;2;1;
44312;PMS5003;38833;51.142;-0.974;2024-01-15T05:28:45;5;2;
44312;PMS5003;38833;51.142;-0.974;2024-01-15T05:31:18;2;2;
44312;PMS5003;38833;51.142;-0.974;2024-01-15T05:33:52;2;1;
44312;PMS5003;38833;51.142;-0.974;2024-01-15T05:36:25;2;2;
44312;PMS5003;38833;51.142;-0.974;2024-01-15T05:38:58;1;1;
44312;PMS5003;38833;51.142;-0.974;2024-01-15T05:41:32;3;2;
44312;PMS5003;38833;51.142;-0.974;2024-01-15T05:44:05;0;0;
44312;PMS5003;38833;51.142;-0.974;2024-01-15T05:46:38;2;2;
44312;PMS5003;38833;51.142;-0.974;2024-01-15T05:49:11;0;0;
44312;PMS5003;38833;51.142;-0.974;2024-01-15T05:51:45;3;2;
44312;PMS5003;38833;51.142;-0.974;2024-01-15T05:54:18;1;1;
44312;PMS5003;38833;51.142;-0.974;2024-01-15T05:56:51;1;1;
44312;PMS5003;38833;51.142;-0.974;2024-01-15T05:59:25;2;2;
44312;PMS5003;38833;51.142;-0.974;2024-01-15T06:01:58;1;1;
44312;PMS5003;38833;51.142;-0.974;2024-01-15T06:04:31;2;1;
44312;PMS5003;38833;51.142;-0.974;2024-01-15T06:07:05;2;2;
44312;PMS5003;38833;51.142;-0.974;2024-01-15T06:09:38;1;1;
44312;PMS5003;38833;51.142;-0.974;2024-01-15T06:12:12;1;1;
44312;PMS5003;38833;51.142;-0.974;2024-01-15T06:14:45;3;2;
44312;PMS5003;38833;51.142;-0.974;2024-01-15T06:17:18;3;3;
44312;PMS5003;38833;51.142;-0.974;2024-01-15T06:19:52;2;2;
44312;PMS5003;38833;51.142;-0.974;2024-01-15T06:22:25;3;2;
44312;PMS5003;38833;51.142;-0.974;2024-01-15T06:24:59;3;2;
44312;PMS5003;38833;51.142;-0.974;2024-01-15T06:27:32;3;2;
44312;PMS5003;38833;51.142;-0.974;2024-01-15T06:30:06;2;2;
44312;PMS5003;38833;51.142;-0.974;2024-01-15T06:32:39;2;2;
44312;PMS5003;38833;51.142;-0.974;2024-01-15T06:35:13;2;2;
44312;PMS5003;38833;51.142;-0.974;2024-01-15T06:37:46;0;0;
44312;PMS5003;38833;51.142;-0.974;2024-01-15T06:40:20;3;2;
44312;PMS5003;38833;51.142;-0.974;2024-01-15T06:42:53;2;2;
44312;PMS5003;38833;51.142;-0.974;2024-01-15T06:45:27;1;1;
44312;PMS5003;38833;51.142;-0.974;2024-01-15T06:48:00;2;2;
44312;PMS5003;38833;51.142;-0.974;2024-01-15T06:50:34;0;0;
44312;PMS5003;38833;51.142;-0.974;2024-01-15T06:53:07;4;2;
44312;PMS5003;38833;51.142;-0.974;2024-01-15T06:55:40;3;3;
44312;PMS5003;38833;51.142;-0.974;2024-01-15T06:58:14;2;2;
44312;PMS5003;38833;51.142;-0.974;2024-01-15T07:00:47;3;2;
44312;PMS5003;38833;51.142;-0.974;2024-01-15T07:03:20;2;2;
44312;PMS5003;38833;51.142;-0.974;2024-01-15T07:05:54;1;0;
44312;PMS5003;38833;51.142;-0.974;2024-01-15T07:08:27;3;2;
44312;PMS5003;38833;51.142;-0.974;2024-01-15T07:11:03;2;2;
44312;PMS5003;38833;51.142;-0.974;2024-01-15T07:13:37;2;2;
44312;PMS5003;38833;51.142;-0.974;2024-01-15T07:16:10;3;3;
44312;PMS5003;38833;51.142;-0.974;2024-01-15T07:18:44;3;3;
44312;PMS5003;38833;51.142;-0.974;2024-01-15T07:21:17;1;1;
44312;PMS5003;38833;51.142;-0.974;2024-01-15T07:23:50;5;2;
44312;PMS5003;38833;51.142;-0.974;2024-01-15T07:26:24;4;3;
44312;PMS5003;38833;51.142;-0.974;2024-01-15T07:28:57;3;3;
44312;PMS5003;38833;51.142;-0.974;2024-01-15T07:31:30;2;2;
44312;PMS5003;38833;51.142;-0.974;2024-01-15T07:34:04;0;0;
44312;PMS5003;38833;51.142;-0.974;2024-01-15T07:36:37;1;1;
44312;PMS5003;38833;51.142;-0.974;2024-01-15T07:39:11;2;2;
44312;PMS5003;38833;51.142;-0.974;2024-01-15T07:41:44;3;2;
44312;PMS5003;38833;51.142;-0.974;2024-01-15T07:44:18;2;2;
44312;PMS5003;38833;51.142;-0.974;2024-01-15T07:46:51;4;2;
44312;PMS5003;38833;51.142;-0.974;2024-01-15T07:55:17;2;2;
44312;PMS5003;38833;51.142;-0.974;2024-01-15T07:57:51;3;3;
44312;PMS5003;38833;51.142;-0.974;2024-01-15T08:00:25;2;2;
44312;PMS5003;38833;51.142;-0.974;2024-01-15T08:02:58;3;3;
44312;PMS5003;38833;51.142;-0.974;2024-01-15T08:05:31;4;3;
44312;PMS5003;38833;51.142;-0.974;2024-01-15T08:08:05;5;4;
44312;PMS5003;38833;51.142;-0.974;2024-01-15T08:10:38;1;1;
44312;PMS5003;38833;51.142;-0.974;2024-01-15T08:13:12;3;3;
44312;PMS5003;38833;51.142;-0.974;2024-01-15T08:15:45;2;2;
44312;PMS5003;38833;51.142;-0.974;2024-01-15T08:18:18;3;3;
44312;PMS5003;38833;51.142;-0.974;2024-01-15T08:20:52;7;5;
44312;PMS5003;38833;51.142;-0.974;2024-01-15T08:23:25;11;11;
44312;PMS5003;38833;51.142;-0.974;2024-01-15T08:25:58;12;10;
44312;PMS5003;38833;51.142;-0.974;2024-01-15T08:28:32;11;11;
44312;PMS5003;38833;51.142;-0.974;2024-01-15T08:31:05;7;6;
44312;PMS5003;38833;51.142;-0.974;2024-01-15T08:33:38;7;7;
44312;PMS5003;38833;51.142;-0.974;2024-01-15T08:36:12;8;6;
44312;PMS5003;38833;51.142;-0.974;2024-01-15T08:38:45;6;6;
44312;PMS5003;38833;51.142;-0.974;2024-01-15T08:41:18;4;4;
44312;PMS5003;38833;51.142;-0.974;2024-01-15T08:43:52;6;4;
44312;PMS5003;38833;51.142;-0.974;2024-01-15T08:46:25;5;4;
44312;PMS5003;38833;51.142;-0.974;2024-01-15T08:48:58;6;5;
44312;PMS5003;38833;51.142;-0.974;2024-01-15T08:51:32;5;5;
44312;PMS5003;38833;51.142;-0.974;2024-01-15T08:54:05;4;3;
44312;PMS5003;38833;51.142;-0.974;2024-01-15T08:56:39;4;4;
44312;PMS5003;38833;51.142;-0.974;2024-01-15T08:59:12;4;4;
44312;PMS5003;38833;51.142;-0.974;2024-01-15T09:01:45;6;5;
44312;PMS5003;38833;51.142;-0.974;2024-01-15T09:04:18;5;5;
44312;PMS5003;38833;51.142;-0.974;2024-01-15T09:06:52;5;5;
44312;PMS5003;38833;51.142;-0.974;2024-01-15T09:09:25;7;7;
44312;PMS5003;38833;51.142;-0.974;2024-01-15T09:11:59;6;5;
44312;PMS5003;38833;51.142;-0.974;2024-01-15T09:14:32;5;5;
44312;PMS5003;38833;51.142;-0.974;2024-01-15T09:17:05;5;4;
44312;PMS5003;38833;51.142;-0.974;2024-01-15T09:19:39;6;4;
44312;PMS5003;38833;51.142;-0.974;2024-01-15T09:22:12;5;5;
44312;PMS5003;38833;51.142;-0.974;2024-01-15T09:24:45;5;5;
44312;PMS5003;38833;51.142;-0.974;2024-01-15T09:27:19;5;5;
44312;PMS5003;38833;51.142;-0.974;2024-01-15T09:29:52;4;4;
44312;PMS5003;38833;51.142;-0.974;2024-01-15T09:32:25;7;7;
44312;PMS5003;38833;51.142;-0.974;2024-01-15T09:34:59;4;3;
44312;PMS5003;38833;51.142;-0.974;2024-01-15T09:37:32;5;5;
44312;PMS5003;38833;51.142;-0.974;2024-01-15T09:40:07;5;3;
44312;PMS5003;38833;51.142;-0.974;2024-01-15T09:42:44;4;4;
44312;PMS5003;38833;51.142;-0.974;2024-01-15T09:45:19;4;4;
44312;PMS5003;38833;51.142;-0.974;2024-01-15T09:47:53;4;4;
44312;PMS5003;38833;51.142;-0.974;2024-01-15T09:50:27;4;4;
44312;PMS5003;38833;51.142;-0.974;2024-01-15T09:53:00;4;4;
44312;PMS5003;38833;51.142;-0.974;2024-01-15T09:55:35;4;4;
44312;PMS5003;38833;51.142;-0.974;2024-01-15T09:58:09;4;4;
44312;PMS5003;38833;51.142;-0.974;2024-01-15T10:00:43;5;5;
44312;PMS5003;38833;51.142;-0.974;2024-01-15T10:03:17;5;5;
44312;PMS5003;38833;51.142;-0.974;2024-01-15T10:05:51;3;3;
44312;PMS5003;38833;51.142;-0.974;2024-01-15T10:08:24;4;4;
44312;PMS5003;38833;51.142;-0.974;2024-01-15T10:10:58;5;4;
44312;PMS5003;38833;51.142;-0.974;2024-01-15T10:13:32;4;4;
44312;PMS5003;38833;51.142;-0.974;2024-01-15T10:16:06;4;4;
44312;PMS5003;38833;51.142;-0.974;2024-01-15T10:18:39;6;5;
44312;PMS5003;38833;51.142;-0.974;2024-01-15T10:21:13;4;4;
44312;PMS5003;38833;51.142;-0.974;2024-01-15T10:23:46;5;5;
44312;PMS5003;38833;51.142;-0.974;2024-01-15T10:26:21;6;5;
44312;PMS5003;38833;51.142;-0.974;2024-01-15T10:28:58;6;5;
44312;PMS5003;38833;51.142;-0.974;2024-01-15T10:31:31;6;4;
44312;PMS5003;38833;51.142;-0.974;2024-01-15T10:34:10;5;4;
44312;PMS5003;38833;51.142;-0.974;2024-01-15T10:36:45;5;4;
44312;PMS5003;38833;51.142;-0.974;2024-01-15T10:39:19;6;5;
44312;PMS5003;38833;51.142;-0.974;2024-01-15T10:41:52;5;5;
44312;PMS5003;38833;51.142;-0.974;2024-01-15T10:44:26;4;4;
44312;PMS5003;38833;51.142;-0.974;2024-01-15T10:46:59;4;4;
44312;PMS5003;38833;51.142;-0.974;2024-01-15T10:49:33;2;2;
44312;PMS5003;38833;51.142;-0.974;2024-01-15T10:52:06;5;5;
44312;PMS5003;38833;51.142;-0.974;2024-01-15T10:54:39;3;3;
44312;PMS5003;38833;51.142;-0.974;2024-01-15T10:57:14;5;5;
44312;PMS5003;38833;51.142;-0.974;2024-01-15T10:59:48;5;5;
44312;PMS5003;38833;51.142;-0.974;2024-01-15T11:02:22;5;5;
44312;PMS5003;38833;51.142;-0.974;2024-01-15T11:04:58;8;6;
44312;PMS5003;38833;51.142;-0.974;2024-01-15T11:07:31;5;5;
44312;PMS5003;38833;51.142;-0.974;2024-01-15T11:10:05;6;5;
44312;PMS5003;38833;51.142;-0.974;2024-01-15T11:12:41;6;6;
44312;PMS5003;38833;51.142;-0.974;2024-01-15T11:15:16;8;8;
44312;PMS5003;38833;51.142;-0.974;2024-01-15T11:18:00;7;6;
44312;PMS5003;38833;51.142;-0.974;2024-01-15T11:20:34;6;6;
44312;PMS5003;38833;51.142;-0.974;2024-01-15T11:23:07;6;6;
44312;PMS5003;38833;51.142;-0.974;2024-01-15T11:25:40;9;7;
44312;PMS5003;38833;51.142;-0.974;2024-01-15T11:28:26;9;6;
44312;PMS5003;38833;51.142;-0.974;2024-01-15T11:31:20;6;5;
44312;PMS5003;38833;51.142;-0.974;2024-01-15T11:33:58;7;7;
44312;PMS5003;38833;51.142;-0.974;2024-01-15T11:37:03;4;4;
44312;PMS5003;38833;51.142;-0.974;2024-01-15T11:39:40;7;6;
44312;PMS5003;38833;51.142;-0.974;2024-01-15T11:42:14;8;7;
44312;PMS5003;38833;51.142;-0.974;2024-01-15T11:44:48;5;5;
44312;PMS5003;38833;51.142;-0.974;2024-01-15T11:50:36;4;4;
44312;PMS5003;38833;51.142;-0.974;2024-01-15T11:53:18;7;6;
44312;PMS5003;38833;51.142;-0.974;2024-01-15T11:55:59;6;5;
44312;PMS5003;38833;51.142;-0.974;2024-01-15T11:58:35;6;5;
44312;PMS5003;38833;51.142;-0.974;2024-01-15T12:01:09;5;5;
44312;PMS5003;38833;51.142;-0.974;2024-01-15T12:03:44;6;5;
44312;PMS5003;38833;51.142;-0.974;2024-01-15T12:06:20;7;7;
44312;PMS5003;38833;51.142;-0.974;2024-01-15T12:09:05;6;6;
44312;PMS5003;38833;51.142;-0.974;2024-01-15T12:11:39;6;6;
44312;PMS5003;38833;51.142;-0.974;2024-01-15T12:14:20;5;5;
44312;PMS5003;38833;51.142;-0.974;2024-01-15T12:16:54;4;4;
44312;PMS5003;38833;51.142;-0.974;2024-01-15T12:19:28;7;6;
44312;PMS5003;38833;51.142;-0.974;2024-01-15T12:22:01;6;6;
44312;PMS5003;38833;51.142;-0.974;2024-01-15T12:24:35;7;6;
44312;PMS5003;38833;51.142;-0.974;2024-01-15T12:27:09;5;5;
44312;PMS5003;38833;51.142;-0.974;2024-01-15T12:29:42;6;6;
44312;PMS5003;38833;51.142;-0.974;2024-01-15T12:32:16;6;6;
44312;PMS5003;38833;51.142;-0.974;2024-01-15T12:34:51;6;6;
44312;PMS5003;38833;51.142;-0.974;2024-01-15T12:37:24;6;6;
44312;PMS5003;38833;51.142;-0.974;2024-01-15T12:39:58;6;6;
44312;PMS5003;38833;51.142;-0.974;2024-01-15T12:42:32;6;6;
44312;PMS5003;38833;51.142;-0.974;2024-01-15T12:45:06;6;6;
44312;PMS5003;38833;51.142;-0.974;2024-01-15T12:47:40;7;7;
44312;PMS5003;38833;51.142;-0.974;2024-01-15T12:50:14;7;6;
44312;PMS5003;38833;51.142;-0.974;2024-01-15T12:52:48;6;5;
44312;PMS5003;38833;51.142;-0.974;2024-01-15T12:55:21;7;7;
44312;PMS5003;38833;51.142;-0.974;2024-01-15T12:57:55;7;7;
44312;PMS5003;38833;51.142;-0.974;2024-01-15T13:00:33;8;8;
44312;PMS5003;38833;51.142;-0.974;2024-01-15T13:03:07;7;7;
44312;PMS5003;38833;51.142;-0.974;2024-01-15T13:05:40;10;9;
44312;PMS5003;38833;51.142;-0.974;2024-01-15T13:08:14;9;9;
44312;PMS5003;38833;51.142;-0.974;2024-01-15T13:10:47;10;8;
44312;PMS5003;38833;51.142;-0.974;2024-01-15T13:13:21;9;9;
44312;PMS5003;38833;51.142;-0.974;2024-01-15T13:15:54;12;8;
44312;PMS5003;38833;51.142;-0.974;2024-01-15T13:18:27;10;9;
44312;PMS5003;38833;51.142;-0.974;2024-01-15T13:21:01;17;17;
44312;PMS5003;38833;51.142;-0.974;2024-01-15T13:23:35;29;24;
44312;PMS5003;38833;51.142;-0.974;2024-01-15T13:26:08;15;15;
44312;PMS5003;38833;51.142;-0.974;2024-01-15T13:28:41;11;9;
44312;PMS5003;38833;51.142;-0.974;2024-01-15T13:31:15;9;8;
44312;PMS5003;38833;51.142;-0.974;2024-01-15T13:33:48;11;9;
44312;PMS5003;38833;51.142;-0.974;2024-01-15T13:36:21;9;7;
44312;PMS5003;38833;51.142;-0.974;2024-01-15T13:38:55;8;7;
44312;PMS5003;38833;51.142;-0.974;2024-01-15T13:41:28;7;5;
44312;PMS5003;38833;51.142;-0.974;2024-01-15T13:44:02;9;6;
44312;PMS5003;38833;51.142;-0.974;2024-01-15T13:46:35;8;6;
44312;PMS5003;38833;51.142;-0.974;2024-01-15T13:49:09;7;7;
44312;PMS5003;38833;51.142;-0.974;2024-01-15T13:51:42;6;6;
44312;PMS5003;38833;51.142;-0.974;2024-01-15T13:54:15;9;8;
44312;PMS5003;38833;51.142;-0.974;2024-01-15T13:56:49;8;7;
44312;PMS5003;38833;51.142;-0.974;2024-01-15T13:59:22;10;8;
44312;PMS5003;38833;51.142;-0.974;2024-01-15T14:01:55;8;7;
44312;PMS5003;38833;51.142;-0.974;2024-01-15T14:04:28;6;6;
44312;PMS5003;38833;51.142;-0.974;2024-01-15T14:07:02;11;8;
44312;PMS5003;38833;51.142;-0.974;2024-01-15T14:09:35;9;8;
44312;PMS5003;38833;51.142;-0.974;2024-01-15T14:12:08;10;9;
44312;PMS5003;38833;51.142;-0.974;2024-01-15T14:14:42;12;7;
44312;PMS5003;38833;51.142;-0.974;2024-01-15T14:17:15;13;9;
44312;PMS5003;38833;51.142;-0.974;2024-01-15T14:19:48;10;10;
44312;PMS5003;38833;51.142;-0.974;2024-01-15T14:22:21;8;7;
44312;PMS5003;38833;51.142;-0.974;2024-01-15T14:24:55;10;10;
44312;PMS5003;38833;51.142;-0.974;2024-01-15T14:27:28;13;11;
44312;PMS5003;38833;51.142;-0.974;2024-01-15T14:30:02;14;14;
44312;PMS5003;38833;51.142;-0.974;2024-01-15T14:32:35;10;10;
44312;PMS5003;38833;51.142;-0.974;2024-01-15T14:35:09;18;17;
44312;PMS5003;38833;51.142;-0.974;2024-01-15T14:37:43;17;17;
44312;PMS5003;38833;51.142;-0.974;2024-01-15T14:40:16;7;7;
44312;PMS5003;38833;51.142;-0.974;2024-01-15T14:42:50;9;7;
44312;PMS5003;38833;51.142;-0.974;2024-01-15T14:45:24;11;8;
44312;PMS5003;38833;51.142;-0.974;2024-01-15T14:47:57;10;7;
44312;PMS5003;38833;51.142;-0.974;2024-01-15T14:50:30;12;12;
44312;PMS5003;38833;51.142;-0.974;2024-01-15T14:53:04;7;7;
44312;PMS5003;38833;51.142;-0.974;2024-01-15T14:55:37;8;8;
44312;PMS5003;38833;51.142;-0.974;2024-01-15T14:58:11;7;7;
44312;PMS5003;38833;51.142;-0.974;2024-01-15T15:00:44;9;9;
44312;PMS5003;38833;51.142;-0.974;2024-01-15T15:03:18;7;7;
44312;PMS5003;38833;51.142;-0.974;2024-01-15T15:05:51;8;7;
44312;PMS5003;38833;51.142;-0.974;2024-01-15T15:08:25;10;8;
44312;PMS5003;38833;51.142;-0.974;2024-01-15T15:10:58;9;7;
44312;PMS5003;38833;51.142;-0.974;2024-01-15T15:13:32;9;7;
44312;PMS5003;38833;51.142;-0.974;2024-01-15T15:16:05;9;9;
44312;PMS5003;38833;51.142;-0.974;2024-01-15T15:18:39;7;7;
44312;PMS5003;38833;51.142;-0.974;2024-01-15T15:21:12;9;7;
44312;PMS5003;38833;51.142;-0.974;2024-01-15T15:23:45;7;7;
44312;PMS5003;38833;51.142;-0.974;2024-01-15T15:26:19;7;7;
44312;PMS5003;38833;51.142;-0.974;2024-01-15T15:28:52;8;8;
44312;PMS5003;38833;51.142;-0.974;2024-01-15T15:31:25;7;7;
44312;PMS5003;38833;51.142;-0.974;2024-01-15T15:33:58;7;7;
44312;PMS5003;38833;51.142;-0.974;2024-01-15T15:36:32;8;7;
44312;PMS5003;38833;51.142;-0.974;2024-01-15T15:39:05;6;6;
44312;PMS5003;38833;51.142;-0.974;2024-01-15T15:41:38;8;6;
44312;PMS5003;38833;51.142;-0.974;2024-01-15T15:44:12;6;6;
44312;PMS5003;38833;51.142;-0.974;2024-01-15T15:46:45;9;6;
44312;PMS5003;38833;51.142;-0.974;2024-01-15T15:49:18;9;6;
44312;PMS5003;38833;51.142;-0.974;2024-01-15T15:51:52;9;8;
44312;PMS5003;38833;51.142;-0.974;2024-01-15T15:54:25;9;6;
44312;PMS5003;38833;51.142;-0.974;2024-01-15T15:56:58;7;7;
44312;PMS5003;38833;51.142;-0.974;2024-01-15T15:59:32;8;6;
44312;PMS5003;38833;51.142;-0.974;2024-01-15T16:02:05;7;7;
44312;PMS5003;38833;51.142;-0.974;2024-01-15T16:04:39;8;8;
44312;PMS5003;38833;51.142;-0.974;2024-01-15T16:07:12;10;8;
44312;PMS5003;38833;51.142;-0.974;2024-01-15T16:09:45;9;9;
44312;PMS5003;38833;51.142;-0.974;2024-01-15T16:12:19;11;11;
44312;PMS5003;38833;51.142;-0.974;2024-01-15T16:14:52;14;11;
44312;PMS5003;38833;51.142;-0.974;2024-01-15T16:17:25;12;11;
44312;PMS5003;38833;51.142;-0.974;2024-01-15T16:41:55;22;22;
44312;PMS5003;38833;51.142;-0.974;2024-01-15T16:44:31;27;25;
44312;PMS5003;38833;51.142;-0.974;2024-01-15T16:47:04;24;24;
44312;PMS5003;38833;51.142;-0.974;2024-01-15T16:49:37;25;25;
44312;PMS5003;38833;51.142;-0.974;2024-01-15T16:52:11;29;29;
44312;PMS5003;38833;51.142;-0.974;2024-01-15T16:54:44;34;34;
44312;PMS5003;38833;51.142;-0.974;2024-01-15T16:57:18;48;48;
44312;PMS5003;38833;51.142;-0.974;2024-01-15T16:59:52;58;58;
44312;PMS5003;38833;51.142;-0.974;2024-01-15T17:02:25;63;63;
44312;PMS5003;38833;51.142;-0.974;2024-01-15T17:04:58;68;68;
44312;PMS5003;38833;51.142;-0.974;2024-01-15T17:07:31;54;54;
44312;PMS5003;38833;51.142;-0.974;2024-01-15T17:10:05;68;68;
44312;PMS5003;38833;51.142;-0.974;2024-01-15T17:12:39;21;18;
44312;PMS5003;38833;51.142;-0.974;2024-01-15T17:15:12;56;56;
44312;PMS5003;38833;51.142;-0.974;2024-01-15T17:17:45;27;26;
44312;PMS5003;38833;51.142;-0.974;2024-01-15T17:20:19;18;18;
44312;PMS5003;38833;51.142;-0.974;2024-01-15T17:22:52;10;10;
44312;PMS5003;38833;51.142;-0.974;2024-01-15T17:25:26;9;8;
44312;PMS5003;38833;51.142;-0.974;2024-01-15T17:27:59;6;6;
44312;PMS5003;38833;51.142;-0.974;2024-01-15T17:30:32;7;6;
44312;PMS5003;38833;51.142;-0.974;2024-01-15T17:33:06;7;7;
44312;PMS5003;38833;51.142;-0.974;2024-01-15T17:35:39;7;7;
44312;PMS5003;38833;51.142;-0.974;2024-01-15T17:38:13;7;7;
44312;PMS5003;38833;51.142;-0.974;2024-01-15T17:40:46;7;7;
44312;PMS5003;38833;51.142;-0.974;2024-01-15T17:43:19;6;6;
44312;PMS5003;38833;51.142;-0.974;2024-01-15T17:45:53;8;6;
44312;PMS5003;38833;51.142;-0.974;2024-01-15T17:48:26;7;7;